Observation data for Memphis on 08/03/2020      Previous  Date       Current Mesonet Observations  Soil Data  Daily Summary Page  Observations in Plain Language
KMES 030500Z 00003KT 23/16 A3008 RMK A01 T02270155  RH  067%=      5-min Rain = 0
KMES 030505Z 01005KT 23/16 A3008 RMK A01 T02270156  RH  067%=      5-min Rain = 0
KMES 030510Z 00004KT 23/16 A3009 RMK A01 T02290157  RH  067%=      5-min Rain = 0
KMES 030515Z 01004KT 23/16 A3009 RMK A01 T02290157  RH  067%=      5-min Rain = 0
KMES 030520Z 01003KT 23/16 A3009 RMK A01 T02290157  RH  067%=      5-min Rain = 0
KMES 030525Z 01002KT 23/16 A3009 RMK A01 T02290158  RH  067%=      5-min Rain = 0
KMES 030530Z 00001KT 23/16 A301 RMK A01 T02280157  RH  067%=      5-min Rain = 0
KMES 030535Z 01002KT 23/16 A301 RMK A01 T02280157  RH  067%=      5-min Rain = 0
KMES 030540Z 02002KT 23/16 A301 RMK A01 T02280157  RH  067%=      5-min Rain = 0
KMES 030545Z 03002KT 23/16 A301 RMK A01 T02280157  RH  067%=      5-min Rain = 0
KMES 030550Z 03002KT 23/16 A3011 RMK A01 T02290158  RH  067%=      5-min Rain = 0
KMES 030555Z 03001KT 23/16 A3011 RMK A01 T02290159  RH  067%=      5-min Rain = 0
KMES 030600Z 02002KT 23/16 A3012 RMK A01 T02310160  RH  067%=      5-min Rain = 0
KMES 030605Z 36002KT 23/16 A3012 RMK A01 T02330162  RH  067%=      5-min Rain = 0
KMES 030610Z 36002KT 24/16 A3012 RMK A01 T02350163  RH  067%=      5-min Rain = 0
KMES 030615Z 28002KT 24/16 A3013 RMK A01 T02380164  RH  066%=      5-min Rain = 0
KMES 030620Z 26004KT 24/16 A3013 RMK A01 T02360163  RH  067%=      5-min Rain = 0
KMES 030625Z 26004KT 24/17 A3014 RMK A01 T02380165  RH  067%=      5-min Rain = 0
KMES 030630Z 27003KT 24/17 A3014 RMK A01 T02400165  RH  066%=      5-min Rain = 0
KMES 030635Z 29003KT 24/17 A3014 RMK A01 T02420166  RH  065%=      5-min Rain = 0
KMES 030640Z 29003KT 24/17 A3014 RMK A01 T02430166  RH  065%=      5-min Rain = 0
KMES 030645Z 28003KT 24/17 A3014 RMK A01 T02440166  RH  065%=      5-min Rain = 0
KMES 030650Z 29003KT 24/17 A3014 RMK A01 T02430167  RH  066%=      5-min Rain = 0
KMES 030655Z 00004KT 24/17 A3015 RMK A01 T02420169  RH  067%=      5-min Rain = 0
KMES 030700Z 27003KT 24/17 A3015 RMK A01 T02400174  RH  070%=      5-min Rain = 0.01
KMES 030705Z 28003KT 24/18 A3015 RMK A01 T02360178  RH  074%=      5-min Rain = 0.01
KMES 030710Z 25002KT 23/18 A3014 RMK A01 T02310179  RH  077%=      5-min Rain = 0.01
KMES 030715Z 17001KT 23/18 A3014 RMK A01 T02280182  RH  079%=      5-min Rain = 0
KMES 030720Z 02001KT 23/18 A3014 RMK A01 T02270184  RH  081%=      5-min Rain = 0
KMES 030725Z 30002KT 23/19 A3014 RMK A01 T02250185  RH  082%=      5-min Rain = 0
KMES 030730Z 31002KT 23/19 A3014 RMK A01 T02260190  RH  084%=      5-min Rain = 0
KMES 030735Z 32001KT 23/19 A3014 RMK A01 T02270192  RH  085%=      5-min Rain = 0
KMES 030740Z 33000KT 23/19 A3014 RMK A01 T02270194  RH  086%=      5-min Rain = 0
KMES 030745Z 00001KT 23/20 A3014 RMK A01 T02270197  RH  088%=      5-min Rain = 0
KMES 030750Z 00001KT 23/20 A3014 RMK A01 T02270198  RH  089%=      5-min Rain = 0
KMES 030755Z 04002KT 23/20 A3014 RMK A01 T02260199  RH  090%=      5-min Rain = 0
KMES 030800Z 04003KT 23/20 A3015 RMK A01 T02250199  RH  090%=      5-min Rain = 0
KMES 030805Z 05003KT 23/20 A3015 RMK A01 T02250200  RH  091%=      5-min Rain = 0
KMES 030810Z 04003KT 23/20 A3015 RMK A01 T02250200  RH  091%=      5-min Rain = 0
KMES 030815Z 04003KT 23/20 A3015 RMK A01 T02250201  RH  091%=      5-min Rain = 0
KMES 030820Z 04002KT 22/20 A3015 RMK A01 T02240199  RH  091%=      5-min Rain = 0
KMES 030825Z 05002KT 22/20 A3014 RMK A01 T02240197  RH  090%=      5-min Rain = 0
KMES 030830Z 05003KT 22/20 A3014 RMK A01 T02240196  RH  089%=      5-min Rain = 0
KMES 030835Z 07004KT 22/19 A3014 RMK A01 T02240194  RH  088%=      5-min Rain = 0
KMES 030840Z 08005KT 23/19 A3014 RMK A01 T02250189  RH  084%=      5-min Rain = 0
KMES 030845Z 08005KT 23/18 A3014 RMK A01 T02270184  RH  081%=      5-min Rain = 0
KMES 030850Z 09005KT 23/18 A3013 RMK A01 T02290180  RH  078%=      5-min Rain = 0
KMES 030855Z 09006KT 23/18 A3013 RMK A01 T02310176  RH  075%=      5-min Rain = 0
KMES 030900Z 10006KT 23/18 A3013 RMK A01 T02340175  RH  073%=      5-min Rain = 0
KMES 030905Z 10005KT 23/17 A3013 RMK A01 T02340174  RH  073%=      5-min Rain = 0
KMES 030910Z 10004KT 23/18 A3013 RMK A01 T02340175  RH  073%=      5-min Rain = 0
KMES 030915Z 10004KT 23/18 A3013 RMK A01 T02340175  RH  073%=      5-min Rain = 0
KMES 030920Z 09004KT 23/18 A3013 RMK A01 T02330175  RH  073%=      5-min Rain = 0
KMES 030925Z 09005KT 23/17 A3012 RMK A01 T02320174  RH  074%=      5-min Rain = 0
KMES 030930Z 09004KT 23/17 A3012 RMK A01 T02320174  RH  074%=      5-min Rain = 0
KMES 030935Z 09004KT 23/17 A3012 RMK A01 T02310174  RH  074%=      5-min Rain = 0
KMES 030940Z 08004KT 23/17 A3012 RMK A01 T02300174  RH  074%=      5-min Rain = 0
KMES 030945Z 08004KT 23/17 A3012 RMK A01 T02290174  RH  075%=      5-min Rain = 0
KMES 030950Z 08004KT 23/17 A3012 RMK A01 T02280174  RH  075%=      5-min Rain = 0
KMES 030955Z 09004KT 23/17 A3012 RMK A01 T02270173  RH  075%=      5-min Rain = 0
KMES 031000Z 08004KT 23/17 A3012 RMK A01 T02270172  RH  075%=      5-min Rain = 0
KMES 031005Z 08003KT 23/17 A3012 RMK A01 T02260171  RH  075%=      5-min Rain = 0
KMES 031010Z 06003KT 23/17 A3012 RMK A01 T02260172  RH  075%=      5-min Rain = 0
KMES 031015Z 06004KT 23/17 A3012 RMK A01 T02250172  RH  076%=      5-min Rain = 0
KMES 031020Z 08004KT 22/17 A3012 RMK A01 T02240171  RH  075%=      5-min Rain = 0
KMES 031025Z 08005KT 23/17 A3012 RMK A01 T02250169  RH  074%=      5-min Rain = 0
KMES 031030Z 07006KT 23/17 A3012 RMK A01 T02260168  RH  074%=      5-min Rain = 0
KMES 031035Z 08006KT 23/17 A3013 RMK A01 T02270168  RH  073%=      5-min Rain = 0
KMES 031040Z 08008G13KT 23/17 A3013 RMK A01 T02280165  RH  071%=      5-min Rain = 0
KMES 031045Z 08009G15KT 23/16 A3013 RMK A01 T02290159  RH  068%=      5-min Rain = 0
KMES 031050Z 08008G13KT 23/16 A3013 RMK A01 T02290157  RH  067%=      5-min Rain = 0
KMES 031055Z 08009G15KT 23/15 A3013 RMK A01 T02280153  RH  065%=      5-min Rain = 0
KMES 031100Z 08009KT 23/15 A3013 RMK A01 T02280150  RH  064%=      5-min Rain = 0
KMES 031105Z 08007KT 23/15 A3013 RMK A01 T02270150  RH  065%=      5-min Rain = 0
KMES 031110Z 07007KT 23/15 A3013 RMK A01 T02250152  RH  066%=      5-min Rain = 0
KMES 031115Z 07007KT 22/15 A3013 RMK A01 T02240154  RH  068%=      5-min Rain = 0
KMES 031120Z 07008G13KT 22/16 A3013 RMK A01 T02220155  RH  069%=      5-min Rain = 0
KMES 031125Z 07010KT 22/15 A3013 RMK A01 T02200149  RH  067%=      5-min Rain = 0
KMES 031130Z 07007KT 22/14 A3013 RMK A01 T02180143  RH  065%=      5-min Rain = 0
KMES 031135Z 06009KT 22/14 A3013 RMK A01 T02170143  RH  066%=      5-min Rain = 0
KMES 031140Z 06010G17KT 21/14 A3013 RMK A01 T02130142  RH  067%=      5-min Rain = 0
KMES 031145Z 06009KT 21/14 A3013 RMK A01 T02060141  RH  069%=      5-min Rain = 0
KMES 031150Z 05006KT 20/14 A3013 RMK A01 T02020140  RH  071%=      5-min Rain = 0
KMES 031155Z 05005KT 20/14 A3013 RMK A01 T01990140  RH  072%=      5-min Rain = 0
KMES 031200Z 05004KT 20/14 A3013 RMK A01 T01960140  RH  073%=      5-min Rain = 0
KMES 031205Z 03003KT 19/14 A3013 RMK A01 T01940140  RH  074%=      5-min Rain = 0
KMES 031210Z 03003KT 19/14 A3013 RMK A01 T01930140  RH  075%=      5-min Rain = 0
KMES 031215Z 04003KT 19/14 A3013 RMK A01 T01910140  RH  075%=      5-min Rain = 0
KMES 031220Z 04003KT 19/14 A3012 RMK A01 T01900140  RH  076%=      5-min Rain = 0
KMES 031225Z 02003KT 19/14 A3012 RMK A01 T01890141  RH  077%=      5-min Rain = 0
KMES 031230Z 33002KT 19/14 A3013 RMK A01 T01880142  RH  078%=      5-min Rain = 0
KMES 031235Z 32003KT 19/14 A3013 RMK A01 T01890143  RH  078%=      5-min Rain = 0
KMES 031240Z 32003KT 19/14 A3013 RMK A01 T01900143  RH  078%=      5-min Rain = 0
KMES 031245Z 34002KT 19/15 A3013 RMK A01 T01910145  RH  078%=      5-min Rain = 0
KMES 031250Z 02002KT 19/15 A3013 RMK A01 T01930147  RH  078%=      5-min Rain = 0
KMES 031255Z 01002KT 20/15 A3013 RMK A01 T01970149  RH  077%=      5-min Rain = 0
KMES 031300Z 35003KT 20/15 A3014 RMK A01 T02000149  RH  076%=      5-min Rain = 0
KMES 031305Z 01003KT 20/15 A3014 RMK A01 T02030148  RH  074%=      5-min Rain = 0
KMES 031310Z 04003KT 21/14 A3014 RMK A01 T02080144  RH  070%=      5-min Rain = 0
KMES 031315Z 05005KT 21/14 A3015 RMK A01 T02120143  RH  068%=      5-min Rain = 0
KMES 031320Z 06006KT 22/14 A3015 RMK A01 T02160140  RH  065%=      5-min Rain = 0
KMES 031325Z 06009KT 22/14 A3015 RMK A01 T02200138  RH  062%=      5-min Rain = 0
KMES 031330Z 03010KT 22/14 A3015 RMK A01 T02180141  RH  064%=      5-min Rain = 0
KMES 031335Z 03009KT 22/15 A3015 RMK A01 T02150146  RH  068%=      5-min Rain = 0
KMES 031340Z 03008KT 21/15 A3015 RMK A01 T02140151  RH  070%=      5-min Rain = 0
KMES 031345Z 04008KT 22/15 A3015 RMK A01 T02150153  RH  071%=      5-min Rain = 0
KMES 031350Z 05007KT 22/15 A3015 RMK A01 T02170153  RH  070%=      5-min Rain = 0
KMES 031355Z 06007KT 22/15 A3015 RMK A01 T02200152  RH  069%=      5-min Rain = 0
KMES 031400Z 05007KT 22/15 A3015 RMK A01 T02230152  RH  067%=      5-min Rain = 0
KMES 031405Z 06007KT 23/15 A3015 RMK A01 T02250153  RH  067%=      5-min Rain = 0
KMES 031410Z 08006G11KT 23/15 A3015 RMK A01 T02290153  RH  065%=      5-min Rain = 0
KMES 031415Z 08007KT 23/15 A3015 RMK A01 T02310153  RH  064%=      5-min Rain = 0
KMES 031420Z 07005KT 23/15 A3015 RMK A01 T02330153  RH  063%=      5-min Rain = 0
KMES 031425Z 08007G12KT 24/15 A3015 RMK A01 T02370152  RH  062%=      5-min Rain = 0
KMES 031430Z 07007KT 24/15 A3015 RMK A01 T02370150  RH  061%=      5-min Rain = 0
KMES 031435Z 08007KT 24/15 A3015 RMK A01 T02410146  RH  058%=      5-min Rain = 0
KMES 031440Z 09008G13KT 24/14 A3015 RMK A01 T02430141  RH  055%=      5-min Rain = 0
KMES 031445Z 11008G13KT 25/14 A3015 RMK A01 T02450137  RH  053%=      5-min Rain = 0
KMES 031450Z 09007KT 24/14 A3015 RMK A01 T02440137  RH  053%=      5-min Rain = 0
KMES 031455Z 08007KT 24/14 A3015 RMK A01 T02430138  RH  054%=      5-min Rain = 0
KMES 031500Z 09007G12KT 25/14 A3015 RMK A01 T02510138  RH  051%=      5-min Rain = 0
KMES 031505Z 11008G13KT 25/14 A3015 RMK A01 T02540136  RH  050%=      5-min Rain = 0
KMES 031510Z 11008KT 26/14 A3015 RMK A01 T02550135  RH  050%=      5-min Rain = 0
KMES 031515Z 07008KT 25/13 A3015 RMK A01 T02540133  RH  049%=      5-min Rain = 0
KMES 031520Z 10006G12KT 25/13 A3015 RMK A01 T02540133  RH  049%=      5-min Rain = 0
KMES 031525Z 10006G12KT 26/13 A3015 RMK A01 T02570133  RH  048%=      5-min Rain = 0
KMES 031530Z 09006KT 26/13 A3015 RMK A01 T02590131  RH  047%=      5-min Rain = 0
KMES 031535Z 08006KT 26/13 A3015 RMK A01 T02600132  RH  047%=      5-min Rain = 0
KMES 031540Z 10007KT 26/13 A3015 RMK A01 T02600131  RH  047%=      5-min Rain = 0
KMES 031545Z 09005KT 26/13 A3015 RMK A01 T02610131  RH  047%=      5-min Rain = 0
KMES 031550Z 06007KT 26/13 A3015 RMK A01 T02630130  RH  046%=      5-min Rain = 0
KMES 031555Z 10007KT 26/13 A3015 RMK A01 T02620130  RH  046%=      5-min Rain = 0
KMES 031600Z 10007KT 26/13 A3016 RMK A01 T02640130  RH  045%=      5-min Rain = 0
KMES 031605Z 09005G11KT 26/13 A3015 RMK A01 T02640134  RH  046%=      5-min Rain = 0
KMES 031610Z 12006KT 27/13 A3015 RMK A01 T02670132  RH  045%=      5-min Rain = 0
KMES 031615Z 08006KT 27/13 A3015 RMK A01 T02680133  RH  045%=      5-min Rain = 0
KMES 031620Z 11006G11KT 27/13 A3015 RMK A01 T02690131  RH  044%=      5-min Rain = 0
KMES 031625Z 11008KT 27/13 A3015 RMK A01 T02690131  RH  044%=      5-min Rain = 0
KMES 031630Z 13005KT 27/13 A3015 RMK A01 T02700131  RH  044%=      5-min Rain = 0
KMES 031635Z 11006KT 27/13 A3015 RMK A01 T02680131  RH  045%=      5-min Rain = 0
KMES 031640Z 08005KT 27/13 A3015 RMK A01 T02720134  RH  045%=      5-min Rain = 0
KMES 031645Z 07005KT 28/14 A3015 RMK A01 T02760135  RH  044%=      5-min Rain = 0
KMES 031650Z 08004KT 28/14 A3015 RMK A01 T02750135  RH  044%=      5-min Rain = 0
KMES 031655Z 11006KT 28/13 A3015 RMK A01 T02790134  RH  043%=      5-min Rain = 0
KMES 031700Z 10005KT 28/13 A3015 RMK A01 T02790134  RH  043%=      5-min Rain = 0
KMES 031705Z 08006KT 28/14 A3015 RMK A01 T02820136  RH  043%=      5-min Rain = 0
KMES 031710Z 07003KT 28/14 A3015 RMK A01 T02820135  RH  042%=      5-min Rain = 0
KMES 031715Z 07004KT 28/14 A3015 RMK A01 T02820136  RH  042%=      5-min Rain = 0
KMES 031720Z 12004KT 28/14 A3015 RMK A01 T02820135  RH  042%=      5-min Rain = 0
KMES 031725Z 12002KT 28/14 A3015 RMK A01 T02840135  RH  042%=      5-min Rain = 0
KMES 031730Z 05004KT 29/14 A3015 RMK A01 T02860136  RH  042%=      5-min Rain = 0
KMES 031735Z 09005KT 29/14 A3015 RMK A01 T02850136  RH  041%=      5-min Rain = 0
KMES 031740Z 13005KT 29/14 A3014 RMK A01 T02890135  RH  041%=      5-min Rain = 0
KMES 031745Z 10005G10KT 29/14 A3015 RMK A01 T02910136  RH  040%=      5-min Rain = 0
KMES 031750Z 08005KT 29/14 A3014 RMK A01 T02910137  RH  040%=      5-min Rain = 0
KMES 031755Z 12005KT 29/14 A3014 RMK A01 T02900135  RH  040%=      5-min Rain = 0
KMES 031800Z 14003KT 29/13 A3014 RMK A01 T02880134  RH  040%=      5-min Rain = 0
KMES 031805Z 02002KT 29/13 A3014 RMK A01 T02890134  RH  040%=      5-min Rain = 0
KMES 031810Z 08003G10KT 29/14 A3014 RMK A01 T02920136  RH  040%=      5-min Rain = 0
KMES 031815Z 11006KT 30/13 A3014 RMK A01 T02950134  RH  039%=      5-min Rain = 0
KMES 031820Z 05004KT 30/14 A3013 RMK A01 T02960135  RH  039%=      5-min Rain = 0
KMES 031825Z 07003KT 30/13 A3013 RMK A01 T02950134  RH  039%=      5-min Rain = 0
KMES 031830Z 14005KT 30/14 A3013 RMK A01 T02960135  RH  039%=      5-min Rain = 0
KMES 031835Z 13007KT 30/14 A3013 RMK A01 T02980135  RH  039%=      5-min Rain = 0
KMES 031840Z 11006G12KT 30/14 A3012 RMK A01 T02980136  RH  039%=      5-min Rain = 0
KMES 031845Z 16005KT 30/13 A3012 RMK A01 T03010134  RH  038%=      5-min Rain = 0
KMES 031850Z 19004G9KT 30/13 A3012 RMK A01 T02970134  RH  038%=      5-min Rain = 0
KMES 031855Z 17007KT 30/14 A3012 RMK A01 T03000135  RH  038%=      5-min Rain = 0
KMES 031900Z 12006G11KT 30/13 A3011 RMK A01 T03040133  RH  037%=      5-min Rain = 0
KMES 031905Z 14006G12KT 30/13 A3011 RMK A01 T03040132  RH  036%=      5-min Rain = 0
KMES 031910Z 08004G11KT 31/13 A3011 RMK A01 T03050133  RH  036%=      5-min Rain = 0
KMES 031915Z 06003G10KT 31/13 A3011 RMK A01 T03050134  RH  037%=      5-min Rain = 0
KMES 031920Z 13005KT 31/13 A3011 RMK A01 T03100134  RH  035%=      5-min Rain = 0
KMES 031925Z 09007G14KT 31/13 A3011 RMK A01 T03120133  RH  035%=      5-min Rain = 0
KMES 031930Z 11009KT 31/13 A301 RMK A01 T03100131  RH  035%=      5-min Rain = 0
KMES 031935Z 05003G8KT 31/13 A301 RMK A01 T03090132  RH  035%=      5-min Rain = 0
KMES 031940Z 15007G13KT 31/13 A301 RMK A01 T03110131  RH  035%=      5-min Rain = 0
KMES 031945Z 16004G9KT 31/13 A3009 RMK A01 T03110132  RH  035%=      5-min Rain = 0
KMES 031950Z 19006KT 32/13 A3009 RMK A01 T03150130  RH  034%=      5-min Rain = 0
KMES 031955Z 18006KT 31/13 A3009 RMK A01 T03110129  RH  034%=      5-min Rain = 0
KMES 032000Z 08006G12KT 31/13 A3009 RMK A01 T03120131  RH  034%=      5-min Rain = 0
KMES 032005Z 12005KT 32/13 A3009 RMK A01 T03160132  RH  034%=      5-min Rain = 0
KMES 032010Z 10005KT 32/13 A3009 RMK A01 T03170131  RH  034%=      5-min Rain = 0
KMES 032015Z 12006G14KT 32/13 A3008 RMK A01 T03170133  RH  034%=      5-min Rain = 0
KMES 032020Z 12008G14KT 32/13 A3008 RMK A01 T03170131  RH  034%=      5-min Rain = 0
KMES 032025Z 15007KT 32/13 A3008 RMK A01 T03180131  RH  033%=      5-min Rain = 0
KMES 032030Z 14006KT 32/13 A3008 RMK A01 T03180131  RH  033%=      5-min Rain = 0
KMES 032035Z 14006KT 32/13 A3007 RMK A01 T03220132  RH  033%=      5-min Rain = 0
KMES 032040Z 14006KT 32/13 A3007 RMK A01 T03240132  RH  032%=      5-min Rain = 0
KMES 032045Z 13006KT 32/13 A3007 RMK A01 T03210131  RH  033%=      5-min Rain = 0
KMES 032050Z 16007KT 32/13 A3007 RMK A01 T03200130  RH  033%=      5-min Rain = 0
KMES 032055Z 14007G13KT 32/13 A3006 RMK A01 T03210131  RH  033%=      5-min Rain = 0
KMES 032100Z 13008G13KT 32/13 A3006 RMK A01 T03240130  RH  032%=      5-min Rain = 0
KMES 032105Z 11007KT 32/13 A3006 RMK A01 T03210132  RH  033%=      5-min Rain = 0
KMES 032110Z 12007G17KT 32/13 A3006 RMK A01 T03220130  RH  032%=      5-min Rain = 0
KMES 032115Z 11004G10KT 32/13 A3006 RMK A01 T03210128  RH  032%=      5-min Rain = 0
KMES 032120Z 06001KT 32/13 A3005 RMK A01 T03240129  RH  032%=      5-min Rain = 0
KMES 032125Z 17005KT 33/13 A3005 RMK A01 T03270127  RH  031%=      5-min Rain = 0
KMES 032130Z 15005KT 33/13 A3005 RMK A01 T03250127  RH  031%=      5-min Rain = 0
KMES 032135Z 16004KT 33/13 A3005 RMK A01 T03250128  RH  032%=      5-min Rain = 0
KMES 032140Z 15005G10KT 33/13 A3005 RMK A01 T03250130  RH  032%=      5-min Rain = 0
KMES 032145Z 15006KT 33/13 A3004 RMK A01 T03270132  RH  032%=      5-min Rain = 0
KMES 032150Z 15007KT 33/13 A3004 RMK A01 T03310132  RH  031%=      5-min Rain = 0
KMES 032155Z 10007G13KT 33/13 A3004 RMK A01 T03320132  RH  031%=      5-min Rain = 0
KMES 032200Z 09009G14KT 33/13 A3004 RMK A01 T03300133  RH  032%=      5-min Rain = 0
KMES 032205Z 09009KT 32/13 A3004 RMK A01 T03240133  RH  033%=      5-min Rain = 0
KMES 032210Z 10008KT 32/13 A3004 RMK A01 T03170132  RH  034%=      5-min Rain = 0
KMES 032215Z 16005G11KT 32/13 A3004 RMK A01 T03170131  RH  034%=      5-min Rain = 0
KMES 032220Z 17005G10KT 32/13 A3003 RMK A01 T03210132  RH  033%=      5-min Rain = 0
KMES 032225Z 14008G13KT 33/13 A3003 RMK A01 T03250132  RH  032%=      5-min Rain = 0
KMES 032230Z 12008KT 32/13 A3003 RMK A01 T03240131  RH  032%=      5-min Rain = 0
KMES 032235Z 12003KT 32/13 A3003 RMK A01 T03200131  RH  033%=      5-min Rain = 0
KMES 032240Z 16004KT 32/13 A3003 RMK A01 T03210130  RH  033%=      5-min Rain = 0
KMES 032245Z 11008KT 33/13 A3002 RMK A01 T03280131  RH  032%=      5-min Rain = 0
KMES 032250Z 13006G11KT 33/13 A3002 RMK A01 T03290130  RH  031%=      5-min Rain = 0
KMES 032255Z 18005KT 33/13 A3002 RMK A01 T03270129  RH  031%=      5-min Rain = 0
KMES 032300Z 18005KT 33/13 A3002 RMK A01 T03270128  RH  031%=      5-min Rain = 0
KMES 032305Z 14007G13KT 33/13 A3002 RMK A01 T03300127  RH  030%=      5-min Rain = 0
KMES 032310Z 14004KT 33/13 A3002 RMK A01 T03280126  RH  030%=      5-min Rain = 0
KMES 032315Z 13005KT 33/13 A3001 RMK A01 T03290126  RH  030%=      5-min Rain = 0
KMES 032320Z 13005KT 33/12 A3001 RMK A01 T03310124  RH  030%=      5-min Rain = 0
KMES 032325Z 17005KT 33/12 A3001 RMK A01 T03310124  RH  030%=      5-min Rain = 0
KMES 032330Z 18005KT 33/12 A3001 RMK A01 T03280122  RH  030%=      5-min Rain = 0
KMES 032335Z 15006KT 33/12 A3001 RMK A01 T03280123  RH  030%=      5-min Rain = 0
KMES 032340Z 15005KT 33/12 A3001 RMK A01 T03280122  RH  030%=      5-min Rain = 0
KMES 032345Z 11006KT 33/13 A3001 RMK A01 T03280128  RH  031%=      5-min Rain = 0
KMES 032350Z 10009KT 33/13 A3001 RMK A01 T03260128  RH  031%=      5-min Rain = 0
KMES 032355Z 11006KT 33/13 A3001 RMK A01 T03250127  RH  031%=      5-min Rain = 0
KMES 040000Z 09007G12KT 33/13 A3001 RMK A01 T03260128  RH  031%=      5-min Rain = 0
KMES 040005Z 10009KT 33/13 A3001 RMK A01 T03250127  RH  031%=      5-min Rain = 0
KMES 040010Z 10007G12KT 33/13 A3001 RMK A01 T03260127  RH  031%=      5-min Rain = 0
KMES 040015Z 10007KT 33/13 A3001 RMK A01 T03250127  RH  031%=      5-min Rain = 0
KMES 040020Z 10008G13KT 33/13 A30 RMK A01 T03250126  RH  031%=      5-min Rain = 0
KMES 040025Z 12009KT 32/13 A3001 RMK A01 T03240126  RH  031%=      5-min Rain = 0
KMES 040030Z 11008KT 32/13 A3001 RMK A01 T03230126  RH  031%=      5-min Rain = 0
KMES 040035Z 11008G13KT 32/13 A3001 RMK A01 T03210126  RH  032%=      5-min Rain = 0
KMES 040040Z 10007KT 32/13 A3001 RMK A01 T03200128  RH  032%=      5-min Rain = 0
KMES 040045Z 10007G12KT 32/13 A3001 RMK A01 T03180129  RH  033%=      5-min Rain = 0
KMES 040050Z 10007KT 32/13 A3001 RMK A01 T03170128  RH  033%=      5-min Rain = 0
KMES 040055Z 11008G13KT 32/13 A3001 RMK A01 T03170125  RH  032%=      5-min Rain = 0
KMES 040100Z 10010G15KT 32/13 A3001 RMK A01 T03150127  RH  033%=      5-min Rain = 0
KMES 040105Z 09010G15KT 31/13 A3001 RMK A01 T03110133  RH  035%=      5-min Rain = 0
KMES 040110Z 09009G15KT 31/14 A3001 RMK A01 T03060140  RH  038%=      5-min Rain = 0
KMES 040115Z 08011G16KT 30/14 A3002 RMK A01 T03010141  RH  039%=      5-min Rain = 0
KMES 040120Z 08011KT 30/14 A3002 RMK A01 T02990140  RH  040%=      5-min Rain = 0
KMES 040125Z 08009G16KT 30/14 A3002 RMK A01 T02970140  RH  040%=      5-min Rain = 0
KMES 040130Z 09008KT 30/14 A3002 RMK A01 T02950141  RH  040%=      5-min Rain = 0
KMES 040135Z 08009G16KT 29/14 A3002 RMK A01 T02940141  RH  041%=      5-min Rain = 0
KMES 040140Z 08009G14KT 29/14 A3002 RMK A01 T02930141  RH  041%=      5-min Rain = 0
KMES 040145Z 08009G14KT 29/14 A3002 RMK A01 T02920141  RH  042%=      5-min Rain = 0
KMES 040150Z 08008G13KT 29/14 A3002 RMK A01 T02910142  RH  042%=      5-min Rain = 0
KMES 040155Z 08008KT 29/14 A3002 RMK A01 T02890142  RH  042%=      5-min Rain = 0
KMES 040200Z 08009G14KT 29/14 A3002 RMK A01 T02880143  RH  043%=      5-min Rain = 0
KMES 040205Z 08009KT 29/14 A3003 RMK A01 T02870144  RH  044%=      5-min Rain = 0
KMES 040210Z 08008KT 29/15 A3003 RMK A01 T02860145  RH  044%=      5-min Rain = 0
KMES 040215Z 08008KT 28/15 A3003 RMK A01 T02840145  RH  045%=      5-min Rain = 0
KMES 040220Z 08009KT 28/15 A3004 RMK A01 T02830146  RH  045%=      5-min Rain = 0
KMES 040225Z 08007G13KT 28/15 A3004 RMK A01 T02820146  RH  045%=      5-min Rain = 0
KMES 040230Z 08008KT 28/15 A3004 RMK A01 T02800146  RH  046%=      5-min Rain = 0
KMES 040235Z 08007KT 28/15 A3004 RMK A01 T02790147  RH  046%=      5-min Rain = 0
KMES 040240Z 08008KT 28/15 A3004 RMK A01 T02780148  RH  047%=      5-min Rain = 0
KMES 040245Z 08008G13KT 28/15 A3005 RMK A01 T02780148  RH  047%=      5-min Rain = 0
KMES 040250Z 08008KT 28/15 A3005 RMK A01 T02770149  RH  048%=      5-min Rain = 0
KMES 040255Z 08007KT 28/15 A3006 RMK A01 T02760150  RH  048%=      5-min Rain = 0
KMES 040300Z 08007G12KT 28/15 A3006 RMK A01 T02750150  RH  048%=      5-min Rain = 0
KMES 040305Z 08007KT 27/15 A3007 RMK A01 T02740150  RH  049%=      5-min Rain = 0
KMES 040310Z 08007KT 27/15 A3007 RMK A01 T02730151  RH  049%=      5-min Rain = 0
KMES 040315Z 09008G13KT 27/15 A3007 RMK A01 T02720152  RH  050%=      5-min Rain = 0
KMES 040320Z 08008KT 27/15 A3007 RMK A01 T02710152  RH  050%=      5-min Rain = 0
KMES 040325Z 08008G13KT 27/15 A3007 RMK A01 T02700153  RH  051%=      5-min Rain = 0
KMES 040330Z 09008G14KT 27/15 A3007 RMK A01 T02690153  RH  051%=      5-min Rain = 0
KMES 040335Z 08008G13KT 27/15 A3007 RMK A01 T02680154  RH  052%=      5-min Rain = 0
KMES 040340Z 08008KT 27/16 A3007 RMK A01 T02670155  RH  052%=      5-min Rain = 0
KMES 040345Z 08006KT 27/16 A3007 RMK A01 T02660155  RH  053%=      5-min Rain = 0
KMES 040350Z 08008G15KT 26/16 A3007 RMK A01 T02640157  RH  054%=      5-min Rain = 0
KMES 040355Z 08009KT 26/16 A3007 RMK A01 T02630160  RH  056%=      5-min Rain = 0
KMES 040400Z 09009G14KT 26/16 A3007 RMK A01 T02610162  RH  057%=      5-min Rain = 0
KMES 040405Z 09009G15KT 26/16 A3007 RMK A01 T02600162  RH  058%=      5-min Rain = 0
KMES 040410Z 09008G13KT 26/16 A3007 RMK A01 T02590163  RH  058%=      5-min Rain = 0
KMES 040415Z 09007G13KT 26/16 A3007 RMK A01 T02580163  RH  058%=      5-min Rain = 0
KMES 040420Z 09009G14KT 26/16 A3007 RMK A01 T02570163  RH  059%=      5-min Rain = 0
KMES 040425Z 09008G13KT 26/16 A3007 RMK A01 T02560164  RH  059%=      5-min Rain = 0
KMES 040430Z 09009G14KT 26/16 A3007 RMK A01 T02550164  RH  060%=      5-min Rain = 0
KMES 040435Z 09008G13KT 26/17 A3007 RMK A01 T02550165  RH  060%=      5-min Rain = 0
KMES 040440Z 09009KT 25/17 A3007 RMK A01 T02540165  RH  061%=      5-min Rain = 0
KMES 040445Z 09008G13KT 25/17 A3007 RMK A01 T02530165  RH  061%=      5-min Rain = 0
KMES 040450Z 09008KT 25/17 A3007 RMK A01 T02510165  RH  062%=      5-min Rain = 0
KMES 040455Z 09009G14KT 25/17 A3007 RMK A01 T02500165  RH  062%=      5-min Rain = 0

Page generated in 0.0135 seconds.